Jackson Mountain, Nevada
Current Conditions -  °F | °C
As of 2:56 PM on Thursday 23 Oct 2014 (Local Time) from KWMC Reporting Station
Overcast Overcast  
Wind Chill: 61°   Ceiling: 11000
Heat Index: 61°   Visibility: 10mi
Dew Point: 36°   Wind: 10mph
Humidity: 39%   Direction: 340°NNW
Pressure: 30.06"   Gusts: NA
Location:  41.5215°N, 118.961°W
Report Text: KWMC 232156Z AUTO 34009KT 10SM OVC110 16/02 A3006 RMK AO2 SLP158 T01610022
Loading
Personal Weather Stations






























Interactive Weather Map
Tropical Storm Tracking
New forecast layout! Learn more

10-Day Weather Forecast

Advertisements
Track Severe Weather on mobile